Time;durP1;ratioP1;P1;durP2;ratioP2;P2;SDS_P1;SDS_P2;PMS_P1;PMS_P2;Temp;Humidity;BMP_temperature;BMP_pressure;BME280_temperature;BME280_humidity;BME280_pressure;Samples;Min_cycle;Max_cycle;Signal;HPM_P1;HPM_P2
2022/11/08 00:03:14;;;;;;;6.68;2.50;;;13.90;99.90;;;;;;5085782;28;20030;-73
2022/11/08 00:13:59;;;;;;;7.13;2.80;;;13.80;99.90;;;;;;5105165;28;20033;-72
2022/11/08 00:16:26;;;;;;;7.57;2.50;;;13.80;99.90;;;;;;5107729;28;20073;-72
2022/11/08 00:18:52;;;;;;;11.35;2.70;;;13.80;99.90;;;;;;5107298;28;20039;-72
2022/11/08 00:21:18;;;;;;;6.70;2.70;;;13.80;99.90;;;;;;5107019;28;20039;-73
2022/11/08 00:23:44;;;;;;;8.73;2.45;;;13.70;99.90;;;;;;5108163;28;20027;-73
2022/11/08 00:26:10;;;;;;;11.82;3.10;;;13.70;99.90;;;;;;5101391;28;20024;-72
2022/11/08 00:28:35;;;;;;;8.40;2.80;;;13.70;99.90;;;;;;5106095;28;20051;-73
2022/11/08 00:31:05;;;;;;;7.63;2.35;;;13.70;99.90;;;;;;5108741;28;20503;-73
2022/11/08 00:33:31;;;;;;;9.02;2.50;;;13.70;99.90;;;;;;5106442;28;20508;-73
2022/11/08 00:36:01;;;;;;;9.30;2.45;;;13.70;99.90;;;;;;5104108;27;20120;-72
2022/11/08 00:38:27;;;;;;;7.50;2.22;;;13.60;99.90;;;;;;5109054;28;20533;-72
2022/11/08 00:40:52;;;;;;;12.30;2.97;;;13.60;99.90;;;;;;5108937;28;20369;-73
2022/11/08 00:43:18;;;;;;;10.27;2.60;;;13.50;99.90;;;;;;5104696;28;20484;-74
2022/11/08 00:45:44;;;;;;;9.35;2.47;;;13.50;99.90;;;;;;5108029;28;20019;-73
2022/11/08 00:48:10;;;;;;;9.93;2.95;;;13.50;99.90;;;;;;5108084;28;20043;-73
2022/11/08 00:50:39;;;;;;;7.80;2.40;;;13.60;99.90;;;;;;5092063;28;20468;-73
2022/11/08 00:53:05;;;;;;;6.53;2.42;;;13.60;99.90;;;;;;5106091;28;20543;-73
2022/11/08 00:55:31;;;;;;;6.72;2.25;;;13.60;99.90;;;;;;5090473;28;20020;-73
2022/11/08 00:57:57;;;;;;;8.88;2.40;;;13.50;99.90;;;;;;5110832;28;20818;-73
2022/11/08 01:00:23;;;;;;;6.55;2.42;;;13.50;99.90;;;;;;5109252;28;20024;-73
2022/11/08 01:03:17;;;;;;;8.52;2.33;;;13.50;99.90;;;;;;5110784;28;20026;-73
2022/11/08 01:05:36;;;;;;;14.48;2.60;;;13.50;99.90;;;;;;5102423;28;20090;-73
2022/11/08 01:08:02;;;;;;;6.72;2.90;;;13.50;99.90;;;;;;5108644;28;20074;-73
2022/11/08 01:10:28;;;;;;;13.23;2.30;;;13.50;99.90;;;;;;5105998;28;20060;-73
2022/11/08 01:12:54;;;;;;;9.63;2.50;;;13.50;99.90;;;;;;5106521;28;20032;-73
2022/11/08 01:15:21;;;;;;;7.40;2.22;;;13.50;99.90;;;;;;5090243;28;20544;-76
2022/11/08 01:17:47;;;;;;;8.52;2.13;;;13.30;99.90;;;;;;5088370;28;20118;-73
2022/11/08 01:20:12;;;;;;;13.20;2.33;;;13.40;99.90;;;;;;5086451;28;20138;-73
2022/11/08 01:22:38;;;;;;;6.13;2.03;;;13.40;99.90;;;;;;5087477;28;20479;-73
2022/11/08 01:25:04;;;;;;;11.23;2.88;;;13.40;99.90;;;;;;5103443;28;20077;-73
2022/11/08 01:27:29;;;;;;;10.75;2.90;;;13.30;99.90;;;;;;5106928;28;20031;-72
2022/11/08 01:29:55;;;;;;;9.30;2.45;;;13.30;99.90;;;;;;5105000;28;20110;-73
2022/11/08 01:32:21;;;;;;;8.95;2.38;;;13.40;99.90;;;;;;5109786;28;20028;-73
2022/11/08 01:34:47;;;;;;;6.57;2.20;;;13.40;99.90;;;;;;5086462;28;20019;-73
2022/11/08 01:37:12;;;;;;;7.60;2.03;;;13.40;99.90;;;;;;5104967;28;20031;-73
2022/11/08 01:39:38;;;;;;;5.15;2.38;;;13.40;99.90;;;;;;5107248;28;20072;-73
2022/11/08 01:42:04;;;;;;;7.72;2.45;;;13.40;99.90;;;;;;5105993;28;20055;-73
2022/11/08 01:44:29;;;;;;;9.75;2.40;;;13.40;99.90;;;;;;5091991;28;20041;-73
2022/11/08 01:46:55;;;;;;;6.40;2.33;;;13.40;99.90;;;;;;5107081;28;20125;-73
2022/11/08 01:49:23;;;;;;;12.98;2.08;;;13.40;99.90;;;;;;5105972;28;20031;-73
2022/11/08 01:52:09;;;;;;;8.30;2.00;;;13.40;99.90;;;;;;5100654;28;20027;-73
2022/11/08 01:54:45;;;;;;;9.32;2.13;;;13.30;99.90;;;;;;5101229;28;20032;-72
2022/11/08 01:57:16;;;;;;;7.65;2.40;;;13.30;99.90;;;;;;5102090;28;20032;-73
2022/11/08 01:59:45;;;;;;;7.60;2.42;;;13.40;99.90;;;;;;5084077;28;20023;-73
2022/11/08 02:02:12;;;;;;;10.88;2.78;;;13.30;99.90;;;;;;5103814;28;20015;-73
2022/11/08 02:04:40;;;;;;;7.57;2.38;;;13.40;99.90;;;;;;5089041;28;20043;-73
2022/11/08 02:07:08;;;;;;;6.75;2.30;;;13.40;99.90;;;;;;5104049;28;20020;-73
2022/11/08 02:09:36;;;;;;;5.35;2.42;;;13.40;99.90;;;;;;5109345;28;20019;-73
2022/11/08 02:12:02;;;;;;;6.55;2.28;;;13.40;99.90;;;;;;5107180;28;20036;-72
2022/11/08 02:14:28;;;;;;;8.68;2.33;;;13.40;99.90;;;;;;5104029;28;20543;-73
2022/11/08 02:16:54;;;;;;;8.63;2.05;;;13.40;99.90;;;;;;5108177;28;20044;-73
2022/11/08 02:19:53;;;;;;;12.38;2.35;;;13.30;99.90;;;;;;5103604;28;20034;-73
2022/11/08 02:22:44;;;;;;;9.20;2.55;;;13.30;99.90;;;;;;5101622;28;20023;-73
2022/11/08 02:25:11;;;;;;;8.40;2.38;;;13.30;99.90;;;;;;5103860;28;20472;-73
2022/11/08 02:27:36;;;;;;;7.13;2.45;;;13.30;99.90;;;;;;5106180;28;20047;-73
2022/11/08 02:30:02;;;;;;;8.38;2.30;;;13.30;99.90;;;;;;5103371;28;20015;-72
2022/11/08 02:32:36;;;;;;;5.03;2.05;;;13.20;99.90;;;;;;5102569;28;20028;-73
2022/11/08 02:35:05;;;;;;;5.25;2.30;;;13.20;99.90;;;;;;5102956;28;20031;-73
2022/11/08 02:37:31;;;;;;;8.82;2.35;;;13.10;99.90;;;;;;5103796;28;20477;-72
2022/11/08 02:39:56;;;;;;;9.98;2.22;;;13.10;99.90;;;;;;5103700;28;20090;-73
2022/11/08 02:42:22;;;;;;;6.43;2.50;;;13.10;99.90;;;;;;5083566;28;20024;-73
2022/11/08 02:44:48;;;;;;;9.15;2.53;;;13.10;99.90;;;;;;5104331;28;20023;-72
2022/11/08 02:47:14;;;;;;;8.65;2.40;;;13.00;99.90;;;;;;5086053;28;20118;-72
2022/11/08 02:49:39;;;;;;;9.77;2.50;;;13.00;99.90;;;;;;5107243;28;20077;-73
2022/11/08 02:52:05;;;;;;;8.15;2.70;;;12.90;99.90;;;;;;5104681;28;20032;-73
2022/11/08 02:54:31;;;;;;;10.27;3.13;;;13.00;99.90;;;;;;5100301;28;20067;-73
2022/11/08 02:56:56;;;;;;;8.38;2.00;;;12.90;99.90;;;;;;5107027;28;20030;-73
2022/11/08 02:59:22;;;;;;;11.20;2.35;;;12.90;99.90;;;;;;5100807;28;20020;-73
2022/11/08 03:01:47;;;;;;;9.35;2.20;;;12.90;99.90;;;;;;5109370;28;20054;-73
2022/11/08 03:04:13;;;;;;;9.18;2.67;;;12.90;99.90;;;;;;5107975;28;20024;-73
2022/11/08 03:06:39;;;;;;;6.57;2.83;;;12.90;99.90;;;;;;5091614;28;20030;-73
2022/11/08 03:09:04;;;;;;;7.05;2.30;;;12.80;99.90;;;;;;5108136;28;20085;-73
2022/11/08 03:11:30;;;;;;;6.53;2.47;;;12.80;99.90;;;;;;5105610;28;20109;-73
2022/11/08 03:13:56;;;;;;;6.38;2.42;;;12.70;99.90;;;;;;5111775;28;20034;-74
2022/11/08 03:16:22;;;;;;;6.13;2.53;;;12.70;99.90;;;;;;5105893;27;20494;-73
2022/11/08 03:18:47;;;;;;;9.63;2.70;;;12.70;99.90;;;;;;5111560;28;20035;-74
2022/11/08 03:21:13;;;;;;;7.40;2.28;;;12.70;99.90;;;;;;5106200;28;20581;-73
2022/11/08 03:23:39;;;;;;;6.18;2.22;;;12.80;99.90;;;;;;5104946;28;20027;-73
2022/11/08 03:26:05;;;;;;;9.02;2.60;;;12.80;99.90;;;;;;5105732;28;20461;-74
2022/11/08 03:28:31;;;;;;;10.77;2.72;;;12.80;99.90;;;;;;5102113;27;20031;-74
2022/11/08 03:30:57;;;;;;;7.10;1.98;;;12.70;99.90;;;;;;5108491;28;20027;-74
2022/11/08 03:33:23;;;;;;;7.03;2.05;;;12.70;99.90;;;;;;5107489;28;20073;-74
2022/11/08 03:35:49;;;;;;;8.68;2.05;;;12.70;99.90;;;;;;5105165;28;20012;-73
2022/11/08 03:38:15;;;;;;;6.32;1.98;;;12.70;99.90;;;;;;5106855;28;20053;-74
2022/11/08 03:40:41;;;;;;;9.40;2.10;;;12.60;99.90;;;;;;5111681;28;20523;-73
2022/11/08 03:43:07;;;;;;;8.93;2.13;;;12.70;99.90;;;;;;5090332;28;20022;-74
2022/11/08 03:45:32;;;;;;;6.35;1.88;;;12.70;99.90;;;;;;5101125;28;20024;-74
2022/11/08 03:47:58;;;;;;;6.10;2.20;;;12.60;99.90;;;;;;5108404;28;20036;-73
2022/11/08 03:50:24;;;;;;;6.30;2.33;;;12.70;99.90;;;;;;5088406;28;20029;-73
2022/11/08 03:52:52;;;;;;;7.65;2.15;;;12.60;99.90;;;;;;5107514;28;20024;-73
2022/11/08 03:55:20;;;;;;;7.88;2.22;;;12.60;99.90;;;;;;5108412;28;20157;-73
2022/11/08 03:57:47;;;;;;;9.10;2.85;;;12.50;99.90;;;;;;5106133;28;20038;-73
2022/11/08 04:00:15;;;;;;;9.52;2.20;;;12.50;99.90;;;;;;5105003;28;20473;-73
2022/11/08 04:02:41;;;;;;;7.13;2.30;;;12.40;99.90;;;;;;5108860;27;20057;-73
2022/11/08 04:05:08;;;;;;;8.48;2.35;;;12.50;99.90;;;;;;5086359;28;20024;-73
2022/11/08 04:07:35;;;;;;;4.38;2.20;;;12.40;99.90;;;;;;5108158;28;20131;-73
2022/11/08 04:10:01;;;;;;;5.85;2.22;;;12.40;99.90;;;;;;5102211;28;20119;-73
2022/11/08 04:15:16;;;;;;;7.53;2.17;;;12.20;99.90;;;;;;5105112;27;20035;-73
2022/11/08 04:23:12;;;;;;;9.55;3.00;;;12.30;99.90;;;;;;5107315;28;20079;-74
2022/11/08 04:25:38;;;;;;;8.80;2.90;;;12.30;99.90;;;;;;5105618;28;20055;-74
2022/11/08 04:28:04;;;;;;;17.10;4.05;;;12.20;99.90;;;;;;5105494;28;20032;-73
2022/11/08 04:30:30;;;;;;;8.90;3.58;;;12.30;99.90;;;;;;5108761;28;20019;-74
2022/11/08 04:32:58;;;;;;;8.18;3.05;;;12.20;99.90;;;;;;5106977;28;20032;-74
2022/11/08 04:35:23;;;;;;;9.15;3.20;;;12.20;99.90;;;;;;5102086;28;20012;-75
2022/11/08 04:37:49;;;;;;;10.13;3.67;;;12.10;99.90;;;;;;5108313;28;20075;-74
2022/11/08 04:40:15;;;;;;;9.50;3.13;;;12.10;99.90;;;;;;5102123;28;20047;-74
2022/11/08 04:42:43;;;;;;;7.43;2.97;;;12.10;99.90;;;;;;5106116;28;20039;-74
2022/11/08 04:45:09;;;;;;;6.95;2.90;;;12.00;99.90;;;;;;5105939;28;20465;-74
2022/11/08 04:47:35;;;;;;;4.57;2.50;;;12.00;99.90;;;;;;5102914;28;20031;-74
2022/11/08 04:50:01;;;;;;;11.55;3.20;;;12.00;99.90;;;;;;5111344;28;20032;-74
2022/11/08 04:52:27;;;;;;;6.35;2.65;;;12.00;99.90;;;;;;5104122;28;20536;-74
2022/11/08 04:54:53;;;;;;;9.43;2.65;;;11.90;99.90;;;;;;5110292;28;20018;-74
2022/11/08 04:57:18;;;;;;;10.45;2.78;;;11.90;99.90;;;;;;5105133;28;20384;-73
2022/11/08 04:59:44;;;;;;;12.20;3.05;;;11.90;99.90;;;;;;5109258;28;20016;-74
2022/11/08 05:02:09;;;;;;;6.90;2.22;;;11.80;99.90;;;;;;5089910;28;20066;-73
2022/11/08 05:04:35;;;;;;;9.27;2.85;;;11.80;99.90;;;;;;5107275;28;20031;-74
2022/11/08 05:07:01;;;;;;;9.07;3.05;;;11.90;99.90;;;;;;5105276;28;20043;-73
2022/11/08 05:09:26;;;;;;;3.65;2.40;;;11.90;99.90;;;;;;5104310;28;20023;-73
2022/11/08 05:11:52;;;;;;;4.10;2.25;;;11.90;99.90;;;;;;5088327;28;20030;-73
2022/11/08 05:14:17;;;;;;;3.13;1.92;;;11.80;99.90;;;;;;5104949;28;20028;-74
2022/11/08 05:16:43;;;;;;;8.32;2.42;;;11.80;99.90;;;;;;5103568;28;20031;-74
2022/11/08 05:19:09;;;;;;;10.32;2.22;;;11.80;99.90;;;;;;5101272;28;20472;-73
2022/11/08 05:24:19;;;;;;;5.43;2.38;;;11.90;99.90;;;;;;5102510;28;20023;-74
2022/11/08 05:26:46;;;;;;;4.07;2.05;;;11.80;99.90;;;;;;5110717;28;20035;-74
2022/11/08 05:29:13;;;;;;;3.40;1.85;;;11.90;99.90;;;;;;5105312;28;20487;-73
2022/11/08 05:31:39;;;;;;;7.45;2.40;;;11.80;99.90;;;;;;5101519;28;20086;-73
2022/11/08 05:34:06;;;;;;;4.78;1.95;;;11.90;99.90;;;;;;5102061;28;20510;-74
2022/11/08 05:36:32;;;;;;;8.07;2.15;;;11.80;99.90;;;;;;5110416;28;20107;-73
2022/11/08 05:38:58;;;;;;;4.30;2.35;;;11.80;99.90;;;;;;5099285;28;20675;-74
2022/11/08 05:41:24;;;;;;;4.95;1.88;;;11.90;99.90;;;;;;5104883;28;20047;-74
2022/11/08 05:43:51;;;;;;;6.15;2.53;;;11.80;99.90;;;;;;5084955;28;20077;-73
2022/11/08 05:46:18;;;;;;;8.93;1.90;;;11.90;99.90;;;;;;5102385;28;20016;-74
2022/11/08 05:48:45;;;;;;;9.80;1.88;;;11.90;99.90;;;;;;5107008;28;20028;-75
2022/11/08 05:51:13;;;;;;;6.38;2.20;;;11.80;99.90;;;;;;5100800;28;20024;-75
2022/11/08 05:53:39;;;;;;;5.95;2.22;;;11.70;99.90;;;;;;5100585;28;20050;-74
2022/11/08 05:56:05;;;;;;;7.43;2.17;;;11.70;99.90;;;;;;5100761;28;20107;-74
2022/11/08 05:58:33;;;;;;;4.35;2.42;;;11.70;99.90;;;;;;5105430;28;20461;-74
2022/11/08 06:01:19;;;;;;;5.38;2.15;;;11.70;99.90;;;;;;5101670;28;20073;-74
2022/11/08 06:03:46;;;;;;;5.55;1.95;;;11.70;99.90;;;;;;5089525;28;20024;-74
2022/11/08 06:06:17;;;;;;;4.47;1.65;;;11.60;99.90;;;;;;5106671;28;20526;-74
2022/11/08 06:08:43;;;;;;;11.40;2.60;;;11.60;99.90;;;;;;5104287;28;20033;-74
2022/11/08 06:11:14;;;;;;;6.47;1.90;;;11.60;99.90;;;;;;5109099;28;20027;-74
2022/11/08 06:13:40;;;;;;;5.20;2.20;;;11.60;99.90;;;;;;5102252;28;20032;-75
2022/11/08 06:16:09;;;;;;;3.78;2.00;;;11.60;99.90;;;;;;5102475;28;20024;-75
2022/11/08 06:18:36;;;;;;;4.93;2.35;;;11.70;99.90;;;;;;5086249;28;20499;-74
2022/11/08 06:21:03;;;;;;;6.78;2.55;;;11.70;99.90;;;;;;5106261;28;20024;-74
2022/11/08 06:23:29;;;;;;;6.35;2.20;;;11.60;99.90;;;;;;5102331;28;20028;-74
2022/11/08 06:25:55;;;;;;;8.25;2.30;;;11.60;99.90;;;;;;5107692;28;20501;-74
2022/11/08 06:28:20;;;;;;;4.72;2.08;;;11.50;99.90;;;;;;5101559;28;20055;-74
2022/11/08 06:30:46;;;;;;;3.13;1.80;;;11.50;99.90;;;;;;5106294;28;20095;-74
2022/11/08 06:33:12;;;;;;;5.95;1.95;;;11.50;99.90;;;;;;5107396;28;20027;-74
2022/11/08 06:35:38;;;;;;;5.85;2.25;;;11.40;99.90;;;;;;5105370;28;20080;-75
2022/11/08 06:38:03;;;;;;;3.90;2.05;;;11.30;99.90;;;;;;5110162;28;20031;-75
2022/11/08 06:40:31;;;;;;;5.13;2.22;;;11.30;99.90;;;;;;5090479;28;20020;-74
2022/11/08 06:42:57;;;;;;;6.07;2.72;;;11.40;99.90;;;;;;5107677;28;20028;-73
2022/11/08 06:45:26;;;;;;;5.05;2.40;;;11.40;99.90;;;;;;5108059;27;20017;-73
2022/11/08 06:48:02;;;;;;;3.63;2.35;;;11.40;99.90;;;;;;5095266;28;20405;-73
2022/11/08 06:50:29;;;;;;;3.10;2.03;;;11.40;99.90;;;;;;5103631;27;20073;-73
2022/11/08 06:53:00;;;;;;;4.72;2.55;;;11.30;99.90;;;;;;5090075;28;20114;-74
2022/11/08 06:55:26;;;;;;;7.13;2.40;;;11.30;99.90;;;;;;5105092;28;20024;-73
2022/11/08 06:57:51;;;;;;;7.22;2.05;;;11.40;99.90;;;;;;5110206;28;20088;-74
2022/11/08 07:00:17;;;;;;;7.43;2.25;;;11.40;99.90;;;;;;5109848;28;20480;-74
2022/11/08 07:02:43;;;;;;;4.93;2.00;;;11.50;99.90;;;;;;5108096;28;20392;-74
2022/11/08 07:05:10;;;;;;;5.47;2.00;;;11.40;99.90;;;;;;5108613;28;20020;-73
2022/11/08 07:07:36;;;;;;;5.93;2.13;;;11.40;99.90;;;;;;5112639;28;20063;-73
2022/11/08 07:10:02;;;;;;;5.22;2.58;;;11.40;99.90;;;;;;5107245;27;20070;-72
2022/11/08 07:12:27;;;;;;;5.72;2.15;;;11.40;99.90;;;;;;5108880;28;20039;-73
2022/11/08 07:14:53;;;;;;;4.45;2.22;;;11.40;99.90;;;;;;5102123;28;20015;-72
2022/11/08 07:17:19;;;;;;;3.55;1.92;;;11.40;99.90;;;;;;5110255;28;20076;-74
2022/11/08 07:19:44;;;;;;;4.10;1.73;;;11.20;99.90;;;;;;5110683;28;20015;-72
2022/11/08 07:22:10;;;;;;;5.13;2.58;;;11.30;99.90;;;;;;5108837;28;20028;-73
2022/11/08 07:24:35;;;;;;;3.20;1.40;;;11.50;99.90;;;;;;5091997;28;20532;-73
2022/11/08 07:27:01;;;;;;;4.55;2.00;;;11.50;99.90;;;;;;5102767;28;20051;-72
2022/11/08 07:29:26;;;;;;;4.30;1.60;;;11.60;99.90;;;;;;5104625;28;20032;-71
2022/11/08 07:31:52;;;;;;;4.07;1.73;;;11.70;99.90;;;;;;5106127;28;20379;-71
2022/11/08 07:34:18;;;;;;;4.45;2.03;;;11.80;99.90;;;;;;5109372;28;20482;-71
2022/11/08 07:36:43;;;;;;;4.20;1.90;;;11.80;99.90;;;;;;5106128;28;20482;-71
2022/11/08 07:39:09;;;;;;;5.90;1.52;;;11.90;99.90;;;;;;5110752;28;20024;-72
2022/11/08 07:41:35;;;;;;;3.58;1.45;;;11.90;99.90;;;;;;5103685;28;20028;-71
2022/11/08 07:44:00;;;;;;;3.95;1.50;;;12.10;99.90;;;;;;5110563;28;20026;-71
2022/11/08 07:46:26;;;;;;;5.25;1.67;;;12.20;99.90;;;;;;5103637;28;20483;-71
2022/11/08 07:48:51;;;;;;;3.03;1.75;;;12.20;99.90;;;;;;5108551;28;20054;-71
2022/11/08 07:51:17;;;;;;;3.83;1.40;;;12.20;99.90;;;;;;5085434;28;20417;-71
2022/11/08 07:53:43;;;;;;;2.50;1.20;;;12.30;99.90;;;;;;5100102;27;20522;-71
2022/11/08 07:56:09;;;;;;;2.13;1.23;;;12.30;99.90;;;;;;5106948;28;20027;-72
2022/11/08 07:58:35;;;;;;;2.22;1.17;;;12.40;99.90;;;;;;5109191;28;20034;-73
2022/11/08 08:01:02;;;;;;;5.13;1.52;;;12.40;99.90;;;;;;5104135;28;20027;-73
2022/11/08 08:03:28;;;;;;;4.03;1.63;;;12.50;99.90;;;;;;5104879;28;20012;-73
2022/11/08 08:05:54;;;;;;;2.17;1.35;;;12.60;99.90;;;;;;5105929;28;20649;-73
2022/11/08 08:08:20;;;;;;;4.65;1.73;;;12.60;99.90;;;;;;5102757;28;20067;-74
2022/11/08 08:10:46;;;;;;;2.80;1.70;;;12.60;99.90;;;;;;5103572;28;20024;-74
2022/11/08 08:13:12;;;;;;;6.82;1.63;;;12.70;99.90;;;;;;5101779;28;20024;-74
2022/11/08 08:15:38;;;;;;;2.30;1.38;;;12.70;99.90;;;;;;5105290;28;20032;-74
2022/11/08 08:18:06;;;;;;;4.00;1.50;;;12.70;99.90;;;;;;5105127;28;20032;-74
2022/11/08 08:20:32;;;;;;;3.20;1.55;;;12.80;99.90;;;;;;5104076;28;20490;-74
2022/11/08 08:22:59;;;;;;;2.85;1.40;;;12.80;99.90;;;;;;5107741;28;20357;-73
2022/11/08 08:25:26;;;;;;;8.20;1.70;;;12.90;99.90;;;;;;5105962;28;20020;-74
2022/11/08 08:27:54;;;;;;;6.10;1.50;;;12.90;99.90;;;;;;5108572;28;20770;-74
2022/11/08 08:30:21;;;;;;;2.45;1.30;;;13.00;99.90;;;;;;5102204;28;20531;-74
2022/11/08 08:32:48;;;;;;;3.70;1.83;;;12.90;99.90;;;;;;5106717;28;20034;-74
2022/11/08 08:35:14;;;;;;;2.72;1.58;;;13.10;99.90;;;;;;5103580;28;20115;-74
2022/11/08 08:37:40;;;;;;;3.88;1.80;;;13.10;99.90;;;;;;5111622;28;20480;-74
2022/11/08 08:40:06;;;;;;;3.30;1.90;;;13.20;99.90;;;;;;5102949;28;20100;-74
2022/11/08 08:42:33;;;;;;;1.75;1.42;;;13.20;99.90;;;;;;5088710;28;20051;-74
2022/11/08 08:44:59;;;;;;;5.03;2.05;;;13.20;99.90;;;;;;5099253;27;20032;-74
2022/11/08 08:47:25;;;;;;;5.78;1.77;;;13.30;99.90;;;;;;5104477;28;20663;-74
2022/11/08 08:49:50;;;;;;;7.13;2.67;;;13.20;99.90;;;;;;5110153;28;20020;-74
2022/11/08 08:52:16;;;;;;;5.65;2.00;;;13.30;99.90;;;;;;5106708;28;20103;-74
2022/11/08 08:54:42;;;;;;;4.57;1.48;;;13.30;99.90;;;;;;5110298;28;20019;-74
2022/11/08 08:57:08;;;;;;;8.05;1.48;;;13.50;99.90;;;;;;5107986;28;20024;-74
2022/11/08 08:59:33;;;;;;;5.03;1.73;;;13.40;99.90;;;;;;5097726;28;20092;-74
2022/11/08 09:01:59;;;;;;;4.43;2.20;;;13.50;99.90;;;;;;5107826;28;20364;-74
2022/11/08 09:04:26;;;;;;;5.40;1.70;;;13.60;99.90;;;;;;5089897;28;20393;-73
2022/11/08 09:06:52;;;;;;;2.13;1.30;;;13.60;99.90;;;;;;5103280;28;20424;-74
2022/11/08 09:09:17;;;;;;;5.43;1.42;;;13.70;99.90;;;;;;5108023;28;20075;-74
2022/11/08 09:11:43;;;;;;;5.00;1.85;;;13.70;99.90;;;;;;5103224;28;20027;-74
2022/11/08 09:14:08;;;;;;;6.45;1.45;;;13.80;99.90;;;;;;5106445;28;20552;-74
2022/11/08 09:16:34;;;;;;;1.83;1.30;;;13.80;99.90;;;;;;5100912;27;20100;-74
2022/11/08 09:19:00;;;;;;;2.67;1.40;;;13.80;99.90;;;;;;5104367;28;20498;-74
2022/11/08 09:21:25;;;;;;;3.83;1.65;;;13.90;99.90;;;;;;5104438;28;20081;-74
2022/11/08 09:23:51;;;;;;;2.90;1.52;;;14.00;99.90;;;;;;5106382;28;20032;-74
2022/11/08 09:26:17;;;;;;;3.50;1.42;;;14.00;99.90;;;;;;5102418;28;20366;-74
2022/11/08 09:28:42;;;;;;;4.68;1.70;;;14.00;99.90;;;;;;5107174;28;20031;-74
2022/11/08 09:31:10;;;;;;;3.92;1.38;;;14.10;99.90;;;;;;5087742;28;20126;-74
2022/11/08 09:33:37;;;;;;;3.33;1.60;;;14.30;99.90;;;;;;5109466;28;20016;-74
2022/11/08 09:36:04;;;;;;;3.00;1.38;;;14.40;99.90;;;;;;5090464;28;20016;-75
2022/11/08 09:38:30;;;;;;;6.45;1.45;;;14.40;99.90;;;;;;5103384;28;20015;-74
2022/11/08 09:41:06;;;;;;;3.60;1.48;;;14.40;99.90;;;;;;5101725;28;20019;-74
2022/11/08 09:43:45;;;;;;;4.20;1.20;;;14.50;99.90;;;;;;5109224;28;20111;-74
2022/11/08 09:46:20;;;;;;;4.22;1.55;;;14.60;99.90;;;;;;5100418;28;20035;-74
2022/11/08 09:48:46;;;;;;;5.45;1.50;;;14.60;99.90;;;;;;5100785;28;20027;-74
2022/11/08 09:51:20;;;;;;;4.53;1.85;;;14.70;99.90;;;;;;5099113;28;20364;-74
2022/11/08 09:53:56;;;;;;;2.83;1.45;;;14.70;99.90;;;;;;5107552;28;20023;-74
2022/11/08 09:56:35;;;;;;;4.53;1.52;;;14.70;99.90;;;;;;5084782;28;20380;-76
2022/11/08 09:59:20;;;;;;;9.68;1.60;;;14.80;99.90;;;;;;5109336;28;20020;-75
2022/11/08 10:01:48;;;;;;;3.05;1.17;;;14.90;99.90;;;;;;5102891;28;20028;-75
2022/11/08 10:04:15;;;;;;;3.22;1.23;;;14.90;99.90;;;;;;5106633;28;20027;-71
2022/11/08 10:07:05;;;;;;;3.97;1.92;;;14.90;99.90;;;;;;5104049;28;20069;-73
2022/11/08 10:09:58;;;;;;;3.15;1.60;;;15.00;99.90;;;;;;5104316;28;20479;-72
2022/11/08 10:12:34;;;;;;;5.03;1.60;;;15.10;99.90;;;;;;5110268;28;20036;-72
2022/11/08 10:15:38;;;;;;;4.15;1.50;;;15.10;99.90;;;;;;5109837;28;20028;-73
2022/11/08 10:18:25;;;;;;;5.93;1.63;;;15.10;99.90;;;;;;5104733;28;20093;-73
2022/11/08 10:21:08;;;;;;;3.35;1.48;;;15.10;99.90;;;;;;5110385;27;20152;-73
2022/11/08 10:23:56;;;;;;;10.52;1.75;;;15.30;99.90;;;;;;5091759;28;20027;-73
2022/11/08 10:26:33;;;;;;;8.63;2.33;;;15.40;99.90;;;;;;5109678;28;20035;-72
2022/11/08 10:29:14;;;;;;;4.80;1.50;;;15.40;99.90;;;;;;5111816;28;20019;-72
2022/11/08 10:31:44;;;;;;;4.03;1.75;;;15.50;99.90;;;;;;5092898;28;20373;-72
2022/11/08 10:34:21;;;;;;;4.05;1.70;;;15.50;99.90;;;;;;5104858;28;20046;-73
2022/11/08 10:36:48;;;;;;;5.43;1.63;;;15.40;99.90;;;;;;5112994;28;20024;-73
2022/11/08 10:39:21;;;;;;;4.97;1.77;;;15.40;99.90;;;;;;5095643;28;20019;-72
2022/11/08 10:42:44;;;;;;;4.78;1.50;;;15.50;99.90;;;;;;5111244;28;20023;-72
2022/11/08 10:45:09;;;;;;;4.90;1.60;;;15.50;99.90;;;;;;5044775;28;20051;-73
2022/11/08 10:47:36;;;;;;;5.15;1.17;;;15.50;99.90;;;;;;5048449;28;20588;-72
2022/11/08 10:50:13;;;;;;;6.40;1.33;;;15.50;99.90;;;;;;5069780;28;20039;-72
2022/11/08 10:52:46;;;;;;;4.65;2.00;;;15.50;99.90;;;;;;5112077;28;20022;-72
2022/11/08 10:55:32;;;;;;;3.33;1.40;;;15.60;99.90;;;;;;5108112;27;20031;-70
2022/11/08 10:57:57;;;;;;;4.68;1.52;;;15.60;99.90;;;;;;5103589;28;20479;-71
2022/11/08 11:00:29;;;;;;;6.40;1.88;;;15.60;99.90;;;;;;5107362;28;20020;-73
2022/11/08 11:02:55;;;;;;;9.05;1.73;;;15.70;99.90;;;;;;5093143;28;20028;-71
2022/11/08 11:05:42;;;;;;;6.43;1.60;;;15.70;99.90;;;;;;5112804;28;20020;-74
2022/11/08 11:08:07;;;;;;;5.05;1.55;;;15.70;99.90;;;;;;5104462;27;20036;-74
2022/11/08 11:10:42;;;;;;;2.63;1.23;;;15.70;99.90;;;;;;5109455;28;20046;-75
2022/11/08 11:13:12;;;;;;;6.07;1.63;;;15.70;99.90;;;;;;5108722;28;20096;-75
2022/11/08 11:15:48;;;;;;;2.58;1.30;;;15.80;99.90;;;;;;5113693;28;20022;-74
2022/11/08 11:18:20;;;;;;;5.68;1.50;;;15.80;99.90;;;;;;5086829;28;20391;-73
2022/11/08 11:20:59;;;;;;;5.63;1.52;;;15.70;99.90;;;;;;5105354;28;20531;-75
2022/11/08 11:23:47;;;;;;;4.38;1.83;;;15.70;99.90;;;;;;5107953;28;20107;-74
2022/11/08 11:26:27;;;;;;;5.80;1.83;;;15.80;99.90;;;;;;5089603;28;20023;-75
2022/11/08 11:29:14;;;;;;;3.80;1.42;;;15.80;99.90;;;;;;5112139;28;20031;-76
2022/11/08 11:31:43;;;;;;;3.47;1.55;;;15.90;99.90;;;;;;5107595;28;20016;-76
2022/11/08 11:34:18;;;;;;;4.40;1.33;;;15.90;99.90;;;;;;5101991;28;20540;-75
2022/11/08 11:36:46;;;;;;;4.05;1.38;;;15.90;99.90;;;;;;5110237;28;20023;-75
2022/11/08 11:39:30;;;;;;;3.78;1.52;;;16.00;99.90;;;;;;5108384;28;20027;-75
2022/11/08 11:42:13;;;;;;;4.55;1.25;;;16.10;99.90;;;;;;5108875;28;20033;-75
2022/11/08 11:44:45;;;;;;;;;;;16.20;99.90;;;;;;5104881;28;20020;-75
2022/11/08 11:47:20;;;;;;;3.67;1.60;;;16.20;99.90;;;;;;5107026;28;20399;-76
2022/11/08 11:49:47;;;;;;;4.38;1.60;;;16.40;99.90;;;;;;5104032;28;20618;-76
2022/11/08 11:52:18;;;;;;;4.60;1.42;;;16.40;99.90;;;;;;5108516;28;20047;-75
2022/11/08 11:54:46;;;;;;;5.28;1.35;;;16.50;99.90;;;;;;5109838;28;20472;-75
2022/11/08 11:57:27;;;;;;;6.35;1.50;;;16.40;99.90;;;;;;5109646;27;20043;-76
2022/11/08 12:00:10;;;;;;;3.33;1.60;;;16.40;99.90;;;;;;5105334;28;20069;-76
2022/11/08 12:02:45;;;;;;;3.90;1.30;;;16.40;99.90;;;;;;5111528;28;20024;-76
2022/11/08 12:05:28;;;;;;;3.08;1.48;;;16.30;99.90;;;;;;5103162;28;20407;-74
2022/11/08 12:08:31;;;;;;;6.18;1.63;;;16.30;99.90;;;;;;5101514;28;20025;-73
2022/11/08 12:10:57;;;;;;;2.90;1.10;;;16.20;99.90;;;;;;5107839;28;20051;-72
2022/11/08 12:13:43;;;;;;;3.30;1.60;;;16.30;99.90;;;;;;5109697;28;20051;-72
2022/11/08 12:16:21;;;;;;;4.13;1.60;;;16.30;99.90;;;;;;5056102;28;20068;-71
2022/11/08 12:18:52;;;;;;;3.67;1.73;;;16.20;99.90;;;;;;5110306;28;20038;-75
2022/11/08 12:21:21;;;;;;;3.72;1.70;;;16.20;99.90;;;;;;5087844;28;20437;-71
2022/11/08 12:24:11;;;;;;;5.68;1.77;;;16.20;99.90;;;;;;5103634;28;20058;-72
2022/11/08 12:27:00;;;;;;;10.35;2.08;;;16.20;99.90;;;;;;5105849;27;20725;-71
2022/11/08 12:30:00;;;;;;;2.92;1.80;;;16.20;99.90;;;;;;5095513;28;20032;-75
2022/11/08 12:33:04;;;;;;;5.75;1.48;;;16.30;99.90;;;;;;5100944;28;20472;-73
2022/11/08 12:35:48;;;;;;;1.90;1.30;;;16.30;99.90;;;;;;5100687;28;20020;-75
2022/11/08 12:38:49;;;;;;;4.00;1.30;;;16.30;99.90;;;;;;5105913;28;20076;-75
2022/11/08 12:41:24;;;;;;;2.47;1.42;;;16.30;99.90;;;;;;5107817;28;20028;-73
2022/11/08 12:44:27;;;;;;;4.70;1.63;;;16.40;99.90;;;;;;5110991;28;20026;-76
2022/11/08 12:47:07;;;;;;;6.40;1.90;;;16.40;99.90;;;;;;5103088;28;20059;-74
2022/11/08 12:49:42;;;;;;;2.42;1.40;;;16.40;99.90;;;;;;5102090;28;20039;-72
2022/11/08 12:52:20;;;;;;;5.68;1.88;;;16.40;99.90;;;;;;5105725;28;21053;-75
2022/11/08 12:55:02;;;;;;;7.28;2.50;;;16.40;99.90;;;;;;5107500;28;20069;-75
2022/11/08 12:57:29;;;;;;;3.55;1.60;;;16.40;99.90;;;;;;5105881;28;20043;-74
2022/11/08 13:00:14;;;;;;;4.60;1.52;;;16.40;99.90;;;;;;5104256;28;20097;-76
2022/11/08 13:02:42;;;;;;;7.15;2.10;;;16.40;99.90;;;;;;5103186;28;20482;-75
2022/11/08 13:05:17;;;;;;;3.85;1.40;;;16.50;99.90;;;;;;5110093;28;20039;-76
2022/11/08 13:07:54;;;;;;;4.47;1.70;;;16.60;99.90;;;;;;5107725;28;20105;-75
2022/11/08 13:10:39;;;;;;;6.68;1.52;;;16.60;99.90;;;;;;5105209;28;20024;-74
2022/11/08 13:13:17;;;;;;;3.45;1.40;;;16.60;99.90;;;;;;5108705;28;20027;-75
2022/11/08 13:16:09;;;;;;;4.03;1.60;;;16.50;99.90;;;;;;5103034;28;20051;-72
2022/11/08 13:18:42;;;;;;;8.68;2.00;;;16.50;99.90;;;;;;5090114;28;20162;-76
2022/11/08 13:21:28;;;;;;;3.28;1.42;;;16.50;99.90;;;;;;5104532;28;20111;-75